Time;durP1;ratioP1;P1;durP2;ratioP2;P2;SDS_P1;SDS_P2;PMS_P1;PMS_P2;Temp;Humidity;BMP_temperature;BMP_pressure;BME280_temperature;BME280_humidity;BME280_pressure;Samples;Min_cycle;Max_cycle;Signal;HPM_P1;HPM_P2
2021/04/14 00:02:01;;;;;;;29.23;17.33;;;8.80;95.70;;;;;;5110457;28;20036;-89
2021/04/14 00:04:27;;;;;;;26.75;17.42;;;8.70;95.60;;;;;;5109938;28;20036;-90
2021/04/14 00:06:56;;;;;;;33.58;18.80;;;8.80;95.50;;;;;;5110148;28;20386;-90
2021/04/14 00:09:22;;;;;;;27.95;18.30;;;8.80;95.60;;;;;;5110020;28;20036;-90
2021/04/14 00:11:48;;;;;;;31.23;18.27;;;8.70;95.50;;;;;;5116795;28;20035;-90
2021/04/14 00:14:13;;;;;;;25.70;17.02;;;8.80;95.60;;;;;;5116884;28;20043;-89
2021/04/14 00:16:39;;;;;;;30.65;19.25;;;8.70;95.50;;;;;;5118652;28;20029;-90
2021/04/14 00:19:05;;;;;;;31.42;18.15;;;8.70;95.60;;;;;;5121168;28;20465;-90
2021/04/14 00:21:32;;;;;;;32.58;19.80;;;8.70;95.50;;;;;;5103017;28;20040;-90
2021/04/14 00:23:58;;;;;;;24.52;17.17;;;8.70;95.60;;;;;;5121087;28;20485;-90
2021/04/14 00:26:24;;;;;;;28.65;18.58;;;8.80;95.50;;;;;;5121458;28;20065;-90
2021/04/14 00:28:50;;;;;;;24.70;18.05;;;8.70;95.50;;;;;;5103139;28;20039;-90
2021/04/14 00:31:17;;;;;;;25.50;16.58;;;8.60;95.40;;;;;;5103654;28;20027;-90
2021/04/14 00:33:43;;;;;;;21.00;14.65;;;8.60;95.40;;;;;;5103120;28;20036;-90
2021/04/14 00:36:10;;;;;;;21.70;14.38;;;8.60;95.40;;;;;;5102905;28;20044;-90
2021/04/14 00:38:35;;;;;;;22.35;14.00;;;8.60;95.30;;;;;;5103209;28;20477;-90
2021/04/14 00:41:06;;;;;;;25.08;16.50;;;8.60;95.30;;;;;;5103208;28;20031;-90
2021/04/14 00:43:34;;;;;;;24.58;16.10;;;8.50;95.40;;;;;;5102916;28;20040;-90
2021/04/14 00:46:00;;;;;;;28.58;17.95;;;8.40;95.30;;;;;;5121252;28;20112;-90
2021/04/14 00:48:26;;;;;;;22.38;16.00;;;8.30;95.40;;;;;;5102932;28;20435;-90
2021/04/14 00:50:53;;;;;;;23.02;15.88;;;8.40;95.30;;;;;;5103245;28;20035;-92
2021/04/14 00:53:19;;;;;;;21.30;14.65;;;8.30;95.40;;;;;;5103162;28;20027;-92
2021/04/14 00:55:45;;;;;;;24.48;14.02;;;8.30;95.30;;;;;;5103020;28;20032;-90
2021/04/14 00:58:12;;;;;;;20.40;13.98;;;8.20;95.30;;;;;;5103010;28;20023;-89
2021/04/14 01:00:46;;;;;;;22.10;15.10;;;8.20;95.30;;;;;;5121143;28;20035;-89
2021/04/14 01:03:22;;;;;;;21.88;14.98;;;8.10;95.40;;;;;;5103074;28;20035;-92
2021/04/14 01:05:50;;;;;;;25.50;15.38;;;8.10;95.40;;;;;;5103328;28;20032;-91
2021/04/14 01:08:16;;;;;;;30.13;16.63;;;8.10;95.40;;;;;;5102759;28;20028;-92
2021/04/14 01:10:42;;;;;;;32.83;16.45;;;8.00;95.40;;;;;;5120767;28;20023;-91
2021/04/14 01:13:08;;;;;;;36.33;18.60;;;8.00;95.40;;;;;;5102872;28;20088;-91
2021/04/14 01:15:37;;;;;;;50.28;19.90;;;8.00;95.40;;;;;;5103145;28;20031;-91
2021/04/14 01:18:04;;;;;;;47.38;19.58;;;7.90;95.50;;;;;;5102683;28;20063;-91
2021/04/14 01:20:30;;;;;;;46.88;18.20;;;7.90;95.40;;;;;;5103149;28;20529;-91
2021/04/14 01:22:56;;;;;;;41.90;19.38;;;7.80;95.50;;;;;;5099323;28;20069;-92
2021/04/14 01:25:35;;;;;;;32.65;17.25;;;7.80;95.90;;;;;;5099315;28;20081;-90
2021/04/14 01:28:04;;;;;;;32.65;18.10;;;7.80;95.70;;;;;;5099120;28;20868;-90
2021/04/14 01:30:30;;;;;;;22.05;14.40;;;7.70;96.00;;;;;;5099642;28;20085;-90
2021/04/14 01:32:56;;;;;;;27.90;17.08;;;7.70;95.80;;;;;;5099914;28;20119;-88
2021/04/14 01:35:26;;;;;;;25.75;17.20;;;7.70;95.80;;;;;;5099534;28;20044;-90
2021/04/14 01:37:52;;;;;;;29.27;17.63;;;7.70;95.70;;;;;;5099267;28;20071;-90
2021/04/14 01:40:20;;;;;;;24.90;16.92;;;7.70;95.60;;;;;;5099161;28;20043;-90
2021/04/14 01:42:46;;;;;;;28.38;18.15;;;7.70;95.70;;;;;;5098850;28;20036;-89
2021/04/14 01:45:15;;;;;;;24.70;16.50;;;7.70;95.70;;;;;;5098878;28;20046;-90
2021/04/14 01:47:40;;;;;;;27.10;17.75;;;7.70;95.70;;;;;;5098491;28;20889;-90
2021/04/14 01:50:07;;;;;;;32.70;19.98;;;7.60;96.10;;;;;;5116433;28;20044;-90
2021/04/14 01:52:33;;;;;;;29.50;18.65;;;7.50;96.10;;;;;;5078483;28;20031;-90
2021/04/14 01:55:00;;;;;;;31.52;18.58;;;7.60;96.10;;;;;;5078431;28;20040;-90
2021/04/14 01:57:26;;;;;;;26.45;17.58;;;7.60;96.00;;;;;;5078576;28;20720;-90
2021/04/14 01:59:52;;;;;;;27.55;17.15;;;7.50;96.00;;;;;;5078728;28;20747;-90
2021/04/14 02:02:18;;;;;;;30.60;18.25;;;7.50;96.10;;;;;;5097728;28;20036;-89
2021/04/14 02:04:44;;;;;;;27.40;17.02;;;7.50;96.10;;;;;;5098330;28;20473;-90
2021/04/14 02:07:10;;;;;;;25.17;16.83;;;7.40;96.00;;;;;;5098455;28;20031;-89
2021/04/14 02:09:36;;;;;;;28.48;18.17;;;7.40;96.10;;;;;;5115795;28;20066;-90
2021/04/14 02:12:03;;;;;;;28.45;18.05;;;7.40;96.10;;;;;;5115412;28;20035;-90
2021/04/14 02:14:29;;;;;;;32.13;18.92;;;7.40;96.00;;;;;;5115412;28;20028;-89
2021/04/14 02:16:55;;;;;;;30.88;19.73;;;7.30;96.10;;;;;;5100832;28;20039;-90
2021/04/14 02:19:21;;;;;;;26.55;17.17;;;7.30;96.40;;;;;;5097300;28;20035;-89
2021/04/14 02:21:46;;;;;;;33.63;18.80;;;7.30;96.20;;;;;;5097272;28;20040;-90
2021/04/14 02:24:12;;;;;;;34.60;20.60;;;7.20;96.20;;;;;;5097356;28;20050;-90
2021/04/14 02:26:38;;;;;;;34.60;22.17;;;7.10;96.60;;;;;;5097447;28;20036;-91
2021/04/14 02:29:03;;;;;;;28.20;17.55;;;7.10;96.80;;;;;;5098199;28;20061;-90
2021/04/14 02:31:30;;;;;;;31.35;18.77;;;7.10;96.50;;;;;;5115251;28;20462;-91
2021/04/14 02:34:02;;;;;;;28.80;16.27;;;7.10;96.40;;;;;;5095815;28;20027;-90
2021/04/14 02:36:28;;;;;;;32.08;18.25;;;7.10;96.30;;;;;;5097813;28;20047;-91
2021/04/14 02:38:55;;;;;;;31.38;16.70;;;7.10;96.50;;;;;;5116097;28;20114;-91
2021/04/14 02:41:21;;;;;;;28.10;17.88;;;7.00;96.30;;;;;;5098138;28;20084;-89
2021/04/14 02:43:48;;;;;;;35.67;18.50;;;7.00;96.40;;;;;;5097098;28;20031;-88
2021/04/14 02:46:14;;;;;;;31.35;19.02;;;6.90;96.60;;;;;;5115310;28;20492;-88
2021/04/14 02:48:40;;;;;;;29.13;17.92;;;6.90;96.70;;;;;;5097030;28;20027;-89
2021/04/14 02:51:07;;;;;;;29.75;17.88;;;6.80;96.60;;;;;;5115519;28;20035;-88
2021/04/14 02:53:33;;;;;;;35.97;19.17;;;6.80;96.70;;;;;;5097143;28;20023;-89
2021/04/14 02:55:59;;;;;;;34.60;18.17;;;6.80;96.60;;;;;;5097380;28;20081;-89
2021/04/14 02:58:25;;;;;;;35.65;19.17;;;6.80;96.50;;;;;;5097674;28;20039;-88
2021/04/14 03:00:51;;;;;;;33.97;20.42;;;6.80;96.60;;;;;;5115687;28;20031;-88
2021/04/14 03:03:17;;;;;;;35.40;20.23;;;6.70;96.70;;;;;;5097336;28;20032;-89
2021/04/14 03:05:42;;;;;;;35.53;19.27;;;6.70;96.70;;;;;;5115804;28;20092;-88
2021/04/14 03:08:08;;;;;;;32.35;17.90;;;6.70;96.60;;;;;;5097124;28;20031;-88
2021/04/14 03:10:34;;;;;;;33.28;18.73;;;6.60;96.60;;;;;;5096495;28;20035;-88
2021/04/14 03:13:01;;;;;;;38.80;20.83;;;6.60;96.70;;;;;;5114867;28;20032;-88
2021/04/14 03:15:33;;;;;;;34.85;19.42;;;6.60;96.80;;;;;;5096748;28;20036;-88
2021/04/14 03:17:58;;;;;;;34.45;20.10;;;6.60;96.70;;;;;;5097301;28;20039;-88
2021/04/14 03:20:24;;;;;;;38.45;20.52;;;6.60;96.90;;;;;;5082722;28;20044;-88
2021/04/14 03:22:52;;;;;;;33.97;18.98;;;6.60;97.10;;;;;;5093786;28;20397;-89
2021/04/14 03:25:19;;;;;;;33.90;18.92;;;6.60;96.90;;;;;;5098364;28;20027;-87
2021/04/14 03:27:45;;;;;;;30.23;18.75;;;6.60;96.70;;;;;;5096019;28;20381;-91
2021/04/14 03:30:11;;;;;;;30.25;17.48;;;6.60;96.70;;;;;;5096917;28;20039;-89
2021/04/14 03:32:37;;;;;;;31.90;18.25;;;6.70;96.60;;;;;;5095954;28;20024;-89
2021/04/14 03:35:05;;;;;;;28.38;17.83;;;6.60;96.60;;;;;;5097287;28;20566;-82
2021/04/14 03:37:30;;;;;;;30.85;17.92;;;6.60;96.70;;;;;;5096804;28;20035;-84
2021/04/14 03:39:56;;;;;;;40.90;23.95;;;6.70;96.80;;;;;;5113903;28;20367;-78
2021/04/14 03:42:22;;;;;;;35.20;19.98;;;6.70;96.70;;;;;;5113184;28;20062;-78
2021/04/14 03:44:54;;;;;;;31.08;19.58;;;6.70;97.00;;;;;;5112956;28;20035;-79
2021/04/14 03:47:21;;;;;;;32.78;18.23;;;6.70;96.90;;;;;;5095229;28;20118;-78
2021/04/14 03:49:47;;;;;;;33.20;19.65;;;6.70;96.80;;;;;;5113739;28;20024;-79
2021/04/14 03:52:13;;;;;;;29.98;17.95;;;6.70;96.70;;;;;;5095042;28;20381;-79
2021/04/14 03:54:39;;;;;;;29.95;18.33;;;6.80;96.70;;;;;;5095289;28;20036;-79
2021/04/14 03:57:05;;;;;;;34.20;19.88;;;6.80;96.60;;;;;;5095069;28;20422;-79
2021/04/14 03:59:30;;;;;;;36.35;21.23;;;6.80;96.60;;;;;;5113442;28;20031;-79
2021/04/14 04:01:56;;;;;;;40.95;23.33;;;6.90;96.70;;;;;;5113161;28;20037;-79
2021/04/14 04:04:22;;;;;;;37.20;21.52;;;6.90;96.90;;;;;;5095258;28;20047;-79
2021/04/14 04:06:48;;;;;;;44.25;23.02;;;6.90;96.80;;;;;;5094991;28;20039;-79
2021/04/14 04:09:14;;;;;;;46.78;24.40;;;6.90;96.70;;;;;;5095106;28;20047;-80
2021/04/14 04:11:40;;;;;;;50.10;26.88;;;7.00;96.80;;;;;;5094480;28;20389;-80
2021/04/14 04:14:06;;;;;;;42.33;25.23;;;7.00;96.70;;;;;;5113311;28;20031;-80
2021/04/14 04:16:31;;;;;;;51.72;28.85;;;7.10;96.60;;;;;;5094705;28;20703;-80
2021/04/14 04:18:57;;;;;;;50.97;27.05;;;7.10;96.70;;;;;;5094633;28;20679;-80
2021/04/14 04:21:23;;;;;;;49.47;28.83;;;7.10;96.80;;;;;;5095127;28;20221;-81
2021/04/14 04:23:50;;;;;;;41.92;25.73;;;7.20;96.60;;;;;;5094206;28;20039;-80
2021/04/14 04:26:16;;;;;;;48.90;27.83;;;7.20;96.50;;;;;;5113664;28;20028;-79
2021/04/14 04:28:42;;;;;;;49.42;27.90;;;7.30;96.40;;;;;;5078291;28;20489;-81
2021/04/14 04:31:08;;;;;;;45.35;28.75;;;7.40;96.30;;;;;;5095699;28;20065;-84
2021/04/14 04:33:34;;;;;;;50.03;29.23;;;7.50;96.20;;;;;;5113573;28;20038;-83
2021/04/14 04:36:00;;;;;;;49.33;27.30;;;7.60;96.10;;;;;;5095249;28;20044;-85
2021/04/14 04:38:26;;;;;;;49.92;26.90;;;7.60;96.00;;;;;;5095814;28;20043;-85
2021/04/14 04:40:52;;;;;;;44.30;24.73;;;7.60;95.90;;;;;;5095849;28;20143;-88
2021/04/14 04:43:19;;;;;;;50.10;24.27;;;7.70;95.90;;;;;;5096416;28;20126;-87
2021/04/14 04:45:45;;;;;;;41.67;23.33;;;7.80;95.80;;;;;;5096153;28;20552;-86
2021/04/14 04:48:11;;;;;;;42.47;22.20;;;7.80;95.80;;;;;;5095175;28;20134;-87
2021/04/14 04:50:37;;;;;;;38.75;22.95;;;7.90;95.70;;;;;;5095680;28;20031;-90
2021/04/14 04:53:08;;;;;;;39.53;21.38;;;7.90;95.70;;;;;;5082790;28;20024;-86
2021/04/14 04:55:34;;;;;;;35.83;22.55;;;8.00;95.70;;;;;;5114253;28;20098;-86
2021/04/14 04:57:59;;;;;;;31.08;22.02;;;8.00;95.50;;;;;;5116622;28;20500;-86
2021/04/14 05:00:26;;;;;;;34.88;23.05;;;8.10;95.50;;;;;;5117876;28;20039;-88
2021/04/14 05:02:54;;;;;;;35.47;22.13;;;8.10;95.40;;;;;;5100079;28;20487;-88
2021/04/14 05:05:23;;;;;;;31.05;21.13;;;8.20;95.40;;;;;;5098551;28;20389;-78
2021/04/14 05:07:49;;;;;;;34.67;22.40;;;8.20;95.30;;;;;;5091968;28;20072;-76
2021/04/14 05:10:16;;;;;;;35.13;23.45;;;8.20;95.10;;;;;;5098130;28;20031;-82
2021/04/14 05:12:42;;;;;;;31.83;20.48;;;8.20;94.90;;;;;;5098814;28;20149;-86
2021/04/14 05:15:09;;;;;;;32.13;20.73;;;8.20;94.90;;;;;;5099304;28;20460;-86
2021/04/14 05:17:35;;;;;;;29.65;19.58;;;8.20;95.00;;;;;;5099579;28;20440;-86
2021/04/14 05:20:01;;;;;;;33.33;20.20;;;8.20;95.00;;;;;;5117463;28;20032;-86
2021/04/14 05:22:30;;;;;;;26.13;18.00;;;8.20;95.00;;;;;;5099152;28;20055;-86
2021/04/14 05:24:55;;;;;;;30.30;20.17;;;8.20;95.00;;;;;;5098685;28;20046;-86
2021/04/14 05:27:21;;;;;;;31.13;20.65;;;8.20;94.90;;;;;;5097718;28;20031;-86
2021/04/14 05:29:47;;;;;;;29.17;18.75;;;8.20;94.90;;;;;;5096964;28;20036;-86
2021/04/14 05:32:12;;;;;;;32.00;20.65;;;8.20;94.80;;;;;;5097296;28;20496;-86
2021/04/14 05:34:38;;;;;;;33.33;21.77;;;8.30;94.80;;;;;;5096944;28;20501;-86
2021/04/14 05:37:04;;;;;;;32.88;19.85;;;8.30;94.70;;;;;;5097948;28;20036;-85
2021/04/14 05:39:29;;;;;;;35.28;23.25;;;8.40;94.60;;;;;;5116223;28;20030;-86
2021/04/14 05:41:55;;;;;;;35.80;22.35;;;8.40;94.40;;;;;;5097024;28;20058;-86
2021/04/14 05:44:21;;;;;;;34.30;21.20;;;8.50;94.40;;;;;;5097105;28;20036;-87
2021/04/14 05:46:46;;;;;;;30.42;20.42;;;8.60;94.40;;;;;;5096905;28;20085;-86
2021/04/14 05:49:12;;;;;;;32.72;20.85;;;8.70;94.20;;;;;;5096846;28;20477;-86
2021/04/14 05:51:38;;;;;;;32.85;20.83;;;8.90;93.90;;;;;;5097180;28;20032;-86
2021/04/14 05:54:04;;;;;;;40.22;21.10;;;9.00;93.80;;;;;;5096863;28;20057;-86
2021/04/14 05:56:30;;;;;;;33.40;20.58;;;9.10;93.40;;;;;;5096971;28;20088;-86
2021/04/14 05:58:57;;;;;;;32.65;19.52;;;9.20;93.30;;;;;;5096963;28;20032;-87
2021/04/14 06:01:25;;;;;;;30.05;19.60;;;9.30;93.30;;;;;;5096934;28;20031;-86
2021/04/14 06:03:51;;;;;;;30.90;18.50;;;9.40;93.20;;;;;;5115019;28;20059;-86
2021/04/14 06:06:19;;;;;;;36.67;19.98;;;9.50;93.30;;;;;;5115011;28;20031;-86
2021/04/14 06:08:44;;;;;;;43.17;22.92;;;9.60;93.20;;;;;;5114659;28;20078;-87
2021/04/14 06:11:10;;;;;;;43.17;22.48;;;9.70;92.90;;;;;;5109006;28;20032;-87
2021/04/14 06:13:36;;;;;;;35.83;21.33;;;9.80;92.80;;;;;;5101080;28;20037;-87
2021/04/14 06:16:07;;;;;;;32.78;18.52;;;9.90;92.10;;;;;;5097106;28;20035;-86
2021/04/14 06:18:33;;;;;;;31.98;18.88;;;10.00;92.30;;;;;;5114626;28;20031;-87
2021/04/14 06:20:59;;;;;;;31.27;19.10;;;10.10;92.30;;;;;;5096732;28;20035;-86
2021/04/14 06:23:25;;;;;;;54.22;22.88;;;10.30;92.10;;;;;;5096219;28;20028;-85
2021/04/14 06:28:36;;;;;;;53.20;23.30;;;10.50;91.30;;;;;;5116165;28;20111;-85
2021/04/14 06:31:03;;;;;;;50.28;21.92;;;10.50;91.00;;;;;;5098484;28;20050;-87
2021/04/14 06:33:32;;;;;;;38.60;20.67;;;10.60;91.10;;;;;;5098010;28;20119;-86
2021/04/14 06:35:58;;;;;;;44.55;22.08;;;10.60;91.20;;;;;;5097590;28;20078;-87
2021/04/14 06:38:30;;;;;;;43.53;22.02;;;10.70;90.90;;;;;;5116198;28;20071;-86
2021/04/14 06:44:23;;;;;;;47.85;24.00;;;11.00;90.50;;;;;;5115810;28;20035;-86
2021/04/14 06:46:52;;;;;;;60.20;25.38;;;11.10;88.30;;;;;;5097750;28;20028;-84
2021/04/14 06:49:19;;;;;;;60.75;26.15;;;11.20;89.60;;;;;;5097872;28;20119;-86
2021/04/14 06:51:45;;;;;;;52.72;23.90;;;11.30;89.40;;;;;;5115671;28;20063;-86
2021/04/14 06:54:35;;;;;;;63.88;27.55;;;11.40;89.10;;;;;;5097362;28;20059;-86
2021/04/14 06:57:17;;;;;;;46.03;22.95;;;11.50;87.50;;;;;;5097499;28;20051;-85
2021/04/14 06:59:53;;;;;;;43.97;19.48;;;11.70;88.00;;;;;;5097626;28;20413;-85
2021/04/14 07:02:26;;;;;;;38.30;19.05;;;11.70;87.70;;;;;;5097402;28;20126;-86
2021/04/14 07:05:03;;;;;;;37.72;18.70;;;11.90;87.20;;;;;;5097251;28;20084;-86
2021/04/14 07:07:33;;;;;;;29.85;17.88;;;12.00;87.10;;;;;;5097362;28;20031;-86
2021/04/14 07:10:19;;;;;;;39.20;17.73;;;12.20;87.30;;;;;;5097610;28;20036;-86
2021/04/14 07:12:45;;;;;;;34.38;18.15;;;12.40;85.80;;;;;;5097213;28;20036;-86
2021/04/14 07:15:17;;;;;;;28.67;18.13;;;12.50;86.40;;;;;;5097402;28;20034;-86
2021/04/14 07:18:05;;;;;;;26.65;18.40;;;12.60;85.00;;;;;;5097203;28;20027;-87
2021/04/14 07:20:39;;;;;;;33.08;19.20;;;12.80;85.00;;;;;;5096609;28;20381;-87
2021/04/14 07:23:13;;;;;;;32.78;17.80;;;12.90;82.70;;;;;;5097051;28;20044;-86
2021/04/14 07:25:49;;;;;;;28.52;16.33;;;13.00;83.20;;;;;;5096298;28;20544;-87
2021/04/14 07:28:49;;;;;;;27.35;16.55;;;13.10;82.60;;;;;;5095720;28;20439;-87
2021/04/14 07:31:18;;;;;;;30.10;16.87;;;13.20;83.10;;;;;;5095622;28;20081;-86
2021/04/14 07:34:26;;;;;;;26.92;14.85;;;13.30;82.40;;;;;;5095422;28;20024;-87
2021/04/14 07:37:20;;;;;;;28.42;16.17;;;13.30;81.40;;;;;;5084709;28;20047;-85
2021/04/14 07:40:11;;;;;;;23.98;15.50;;;13.40;82.40;;;;;;5095562;28;20054;-87
2021/04/14 07:43:12;;;;;;;33.88;19.98;;;13.40;82.30;;;;;;5113795;28;20032;-88
2021/04/14 07:45:38;;;;;;;46.40;19.77;;;13.40;79.70;;;;;;5095575;28;20043;-86
2021/04/14 07:48:09;;;;;;;27.20;16.88;;;13.40;81.30;;;;;;5095315;28;20067;-86
2021/04/14 07:50:52;;;;;;;24.75;14.65;;;13.30;81.60;;;;;;5095132;28;20485;-87
2021/04/14 07:53:33;;;;;;;26.98;16.23;;;13.30;81.00;;;;;;5095457;28;20028;-87
2021/04/14 07:56:21;;;;;;;34.10;21.15;;;13.30;81.00;;;;;;5107019;28;20115;-86
2021/04/14 07:58:50;;;;;;;29.90;20.25;;;13.30;80.80;;;;;;5095190;28;20039;-86
2021/04/14 08:01:22;;;;;;;30.75;17.98;;;13.40;81.90;;;;;;5094871;28;20066;-86
2021/04/14 08:03:48;;;;;;;34.42;17.30;;;13.50;81.80;;;;;;5094806;28;20053;-87
2021/04/14 08:06:23;;;;;;;25.25;15.82;;;13.50;79.30;;;;;;5094969;28;20084;-87
2021/04/14 08:08:50;;;;;;;23.42;14.57;;;13.60;81.00;;;;;;5094721;28;20039;-87
2021/04/14 08:11:31;;;;;;;21.33;13.38;;;13.70;80.90;;;;;;5095073;28;20044;-87
2021/04/14 08:14:14;;;;;;;29.35;14.93;;;13.80;80.80;;;;;;5094789;28;20028;-87
2021/04/14 08:16:47;;;;;;;26.80;13.77;;;13.80;79.10;;;;;;5094884;28;20024;-87
2021/04/14 08:19:21;;;;;;;18.55;10.07;;;13.90;78.80;;;;;;5094937;28;20032;-87
2021/04/14 08:21:58;;;;;;;9.50;6.80;;;13.90;77.40;;;;;;5095029;28;20423;-84
2021/04/14 08:24:40;;;;;;;8.93;6.70;;;14.00;70.60;;;;;;5094745;28;20036;-85
2021/04/14 08:27:23;;;;;;;10.55;5.70;;;14.00;73.60;;;;;;5096299;28;20490;-86
2021/04/14 08:30:15;;;;;;;8.57;6.63;;;14.10;74.10;;;;;;5096521;28;20071;-86
2021/04/14 08:32:55;;;;;;;8.50;5.65;;;14.20;72.60;;;;;;5100573;28;20032;-89
2021/04/14 08:35:30;;;;;;;7.97;5.90;;;14.20;72.20;;;;;;5100759;28;20378;-88
2021/04/14 08:38:11;;;;;;;5.93;5.05;;;14.20;71.40;;;;;;5100764;28;20059;-87
2021/04/14 08:40:51;;;;;;;6.15;5.55;;;14.30;72.40;;;;;;5118626;28;20027;-87
2021/04/14 08:43:27;;;;;;;9.52;5.82;;;14.30;71.00;;;;;;5100396;28;20046;-87
2021/04/14 08:45:54;;;;;;;6.82;5.65;;;14.30;72.20;;;;;;5100478;28;20035;-86
2021/04/14 08:48:31;;;;;;;8.63;5.53;;;14.40;73.10;;;;;;5100235;28;20034;-87
2021/04/14 08:51:03;;;;;;;7.82;5.88;;;14.60;70.80;;;;;;5118499;28;20036;-86
2021/04/14 08:53:41;;;;;;;7.80;5.85;;;14.60;70.70;;;;;;5118436;28;20042;-87
2021/04/14 08:56:07;;;;;;;11.00;5.95;;;14.60;71.10;;;;;;5118871;28;20024;-88
2021/04/14 08:58:34;;;;;;;8.43;6.35;;;14.70;71.10;;;;;;5118903;28;20032;-87
2021/04/14 09:01:00;;;;;;;8.27;6.20;;;14.70;69.20;;;;;;5118613;28;20103;-86
2021/04/14 09:03:32;;;;;;;6.93;6.20;;;14.70;71.20;;;;;;5100515;28;20552;-87
2021/04/14 09:05:58;;;;;;;6.50;5.68;;;14.80;71.20;;;;;;5118866;28;20027;-88
2021/04/14 09:08:29;;;;;;;5.72;5.13;;;15.00;71.60;;;;;;5100103;28;20043;-88
2021/04/14 09:13:38;;;;;;;13.05;10.32;;;15.20;70.10;;;;;;5118194;28;20036;-87
2021/04/14 09:16:07;;;;;;;17.50;12.60;;;15.20;72.90;;;;;;5099920;28;20032;-88
2021/04/14 09:18:42;;;;;;;14.90;10.98;;;15.10;75.00;;;;;;5117984;28;20044;-87
2021/04/14 09:21:16;;;;;;;17.88;11.73;;;15.10;75.50;;;;;;5100097;28;20032;-86
2021/04/14 09:24:07;;;;;;;15.05;11.38;;;15.00;75.70;;;;;;5099873;28;20031;-87
2021/04/14 09:26:36;;;;;;;;;;;15.00;76.10;;;;;;5098597;28;20396;-87
2021/04/14 09:29:07;;;;;;;14.63;11.13;;;14.80;76.60;;;;;;5098123;28;20285;-87
2021/04/14 09:31:41;;;;;;;21.00;12.40;;;14.80;77.20;;;;;;5097595;28;20023;-87
2021/04/14 09:34:30;;;;;;;18.02;12.95;;;14.70;77.40;;;;;;5098215;28;20043;-81
2021/04/14 09:37:07;;;;;;;17.50;11.85;;;14.50;77.30;;;;;;5117095;28;20052;-83
2021/04/14 09:39:44;;;;;;;19.20;11.85;;;14.30;77.90;;;;;;5100615;28;20066;-81
2021/04/14 09:42:22;;;;;;;16.23;11.00;;;14.20;78.30;;;;;;5098095;28;20028;-87
2021/04/14 09:44:59;;;;;;;14.52;10.50;;;14.20;78.30;;;;;;5098538;28;20043;-85
2021/04/14 09:47:28;;;;;;;16.42;11.82;;;14.20;78.30;;;;;;5099043;28;20469;-87
2021/04/14 09:49:55;;;;;;;15.45;11.05;;;14.10;77.50;;;;;;5098356;28;20035;-86
2021/04/14 09:52:27;;;;;;;13.80;11.05;;;14.10;78.70;;;;;;5098350;28;20474;-87
2021/04/14 09:55:05;;;;;;;14.95;11.45;;;14.10;78.60;;;;;;5116963;28;20020;-86
2021/04/14 09:57:36;;;;;;;13.95;10.38;;;14.20;78.70;;;;;;5098491;28;20024;-86
2021/04/14 10:00:03;;;;;;;13.35;9.88;;;14.30;78.40;;;;;;5098665;28;20034;-86
2021/04/14 10:02:30;;;;;;;14.32;10.07;;;14.40;78.50;;;;;;5100780;28;20094;-84
2021/04/14 10:04:59;;;;;;;15.93;10.73;;;14.50;78.40;;;;;;5098523;28;20193;-87
2021/04/14 10:07:32;;;;;;;15.50;10.48;;;14.30;77.60;;;;;;5101578;28;20050;-86
2021/04/14 10:10:18;;;;;;;15.00;10.23;;;14.50;78.00;;;;;;5098558;28;20038;-87
2021/04/14 10:12:44;;;;;;;15.52;9.30;;;14.60;77.90;;;;;;5080036;28;20036;-88
2021/04/14 10:15:11;;;;;;;16.00;11.80;;;14.70;77.70;;;;;;5095464;28;20047;-87
2021/04/14 10:17:37;;;;;;;19.23;11.07;;;14.70;76.20;;;;;;5097897;28;20039;-88
2021/04/14 10:20:14;;;;;;;14.07;10.38;;;14.80;76.70;;;;;;5115874;28;20023;-87
2021/04/14 10:22:44;;;;;;;12.57;10.25;;;14.80;76.80;;;;;;5098151;28;20123;-91
2021/04/14 10:25:25;;;;;;;12.13;9.88;;;14.90;76.90;;;;;;5098358;28;20038;-92
2021/04/14 10:28:00;;;;;;;31.60;10.80;;;14.80;76.10;;;;;;5098080;28;20511;-92
2021/04/14 10:30:27;;;;;;;15.02;9.88;;;14.80;76.50;;;;;;5116354;28;20381;-91
2021/04/14 10:33:06;;;;;;;18.85;11.10;;;14.70;77.30;;;;;;5098215;28;20591;-90
2021/04/14 10:35:32;;;;;;;15.27;10.20;;;14.50;77.50;;;;;;5080837;28;20047;-90
2021/04/14 10:37:59;;;;;;;14.15;11.13;;;14.60;77.90;;;;;;5098387;28;20389;-90
2021/04/14 10:40:30;;;;;;;15.27;11.35;;;14.60;78.10;;;;;;5098490;28;20398;-90
2021/04/14 10:42:57;;;;;;;15.95;11.45;;;14.50;78.10;;;;;;5098571;28;20049;-90
2021/04/14 10:45:25;;;;;;;18.17;10.18;;;14.50;78.90;;;;;;5098857;28;20027;-91
2021/04/14 10:47:55;;;;;;;18.83;11.90;;;14.50;79.10;;;;;;5083340;28;20491;-90
2021/04/14 10:50:30;;;;;;;17.98;11.73;;;14.40;79.00;;;;;;5100054;28;20073;-90
2021/04/14 10:53:06;;;;;;;15.15;10.48;;;14.50;78.90;;;;;;5098237;28;20062;-89
2021/04/14 10:55:46;;;;;;;17.88;10.55;;;14.70;78.90;;;;;;5097019;28;20024;-90
2021/04/14 10:58:22;;;;;;;13.40;9.88;;;14.70;78.20;;;;;;5085897;28;20554;-90
2021/04/14 11:00:50;;;;;;;15.82;9.65;;;14.90;77.90;;;;;;5097660;28;20069;-90
2021/04/14 11:03:21;;;;;;;12.80;10.05;;;14.90;77.90;;;;;;5097595;28;20115;-90
2021/04/14 11:05:58;;;;;;;14.23;10.70;;;15.00;77.50;;;;;;5097353;28;20084;-87
2021/04/14 11:08:27;;;;;;;14.88;9.90;;;14.90;76.70;;;;;;5097384;28;20092;-87
2021/04/14 11:10:58;;;;;;;11.40;9.75;;;14.80;76.90;;;;;;5097262;28;20123;-89
2021/04/14 11:13:28;;;;;;;11.45;9.57;;;14.70;77.40;;;;;;5097444;28;20035;-88
2021/04/14 11:15:54;;;;;;;16.58;8.85;;;14.70;78.00;;;;;;5097988;28;20032;-84
2021/04/14 11:18:34;;;;;;;16.45;10.13;;;14.70;78.40;;;;;;5115182;28;20028;-80
2021/04/14 11:23:31;;;;;;;21.40;15.40;;;14.90;77.90;;;;;;5119023;28;20122;-86
2021/04/14 11:26:09;;;;;;;18.35;10.02;;;15.00;77.30;;;;;;5080499;28;20058;-87
2021/04/14 11:28:54;;;;;;;16.15;10.85;;;15.00;77.20;;;;;;5116267;28;20038;-89
2021/04/14 11:31:49;;;;;;;21.15;11.70;;;14.90;76.90;;;;;;5096255;28;20419;-88
2021/04/14 11:34:33;;;;;;;15.73;10.27;;;14.90;77.40;;;;;;5096387;28;20055;-86
2021/04/14 11:37:10;;;;;;;19.20;9.63;;;14.90;77.50;;;;;;5097081;28;20036;-86
2021/04/14 11:40:18;;;;;;;13.48;10.05;;;15.00;77.50;;;;;;5098013;28;20024;-86
2021/04/14 11:42:56;;;;;;;15.25;9.43;;;15.00;76.10;;;;;;4996757;28;20443;-89
2021/04/14 11:45:37;;;;;;;15.13;9.57;;;15.20;76.70;;;;;;5089662;28;20031;-87
2021/04/14 11:48:11;;;;;;;15.90;10.32;;;15.30;76.80;;;;;;5115025;28;20028;-87
2021/04/14 11:50:39;;;;;;;13.05;9.73;;;15.20;76.60;;;;;;5096587;28;20035;-86
2021/04/14 11:53:28;;;;;;;15.18;9.80;;;15.30;76.30;;;;;;5096718;28;20028;-89
2021/04/14 11:55:55;;;;;;;12.67;9.77;;;15.30;76.00;;;;;;5096531;28;20080;-87
2021/04/14 11:58:24;;;;;;;15.15;9.48;;;15.10;76.40;;;;;;5096672;28;20477;-88
2021/04/14 12:00:50;;;;;;;11.75;9.70;;;15.10;76.50;;;;;;5096871;28;20039;-88
2021/04/14 12:03:19;;;;;;;21.95;9.50;;;15.00;76.50;;;;;;5096477;28;20077;-87
2021/04/14 12:05:47;;;;;;;11.98;8.80;;;15.00;75.90;;;;;;5096197;28;20028;-87
2021/04/14 12:08:13;;;;;;;14.93;10.40;;;15.10;76.30;;;;;;5096787;28;20028;-85
2021/04/14 12:10:39;;;;;;;13.40;8.77;;;14.90;76.30;;;;;;5096238;28;20362;-87
2021/04/14 12:13:05;;;;;;;23.27;10.73;;;14.90;76.90;;;;;;5096119;28;20028;-86
2021/04/14 12:15:30;;;;;;;12.80;9.70;;;14.80;76.80;;;;;;5096006;28;20380;-86
2021/04/14 12:17:56;;;;;;;15.32;9.43;;;14.70;76.80;;;;;;5097552;28;20024;-88
2021/04/14 12:20:22;;;;;;;13.88;10.02;;;14.60;77.30;;;;;;5096450;28;20031;-88
2021/04/14 12:22:48;;;;;;;13.70;9.00;;;14.60;76.80;;;;;;5114138;28;20032;-88
2021/04/14 12:25:15;;;;;;;21.80;15.57;;;14.60;77.00;;;;;;5096155;28;20419;-87
2021/04/14 12:27:41;;;;;;;14.85;10.07;;;14.60;76.80;;;;;;5095942;28;20055;-87
2021/04/14 12:30:07;;;;;;;12.13;8.70;;;14.50;76.40;;;;;;5096221;28;20070;-87
2021/04/14 12:32:34;;;;;;;9.90;8.90;;;14.60;76.70;;;;;;5114678;28;20039;-86
2021/04/14 12:35:00;;;;;;;12.77;8.73;;;14.60;76.20;;;;;;5096304;28;20048;-88
2021/04/14 12:37:26;;;;;;;13.30;8.70;;;14.60;77.10;;;;;;5096413;28;20052;-87
2021/04/14 12:39:52;;;;;;;14.75;9.25;;;14.60;76.80;;;;;;5096202;28;20069;-89
2021/04/14 12:42:18;;;;;;;10.25;8.52;;;14.50;76.70;;;;;;5095973;28;20079;-86
2021/04/14 12:44:44;;;;;;;10.73;7.53;;;14.50;76.80;;;;;;5096144;28;20050;-89
2021/04/14 12:47:18;;;;;;;13.75;8.32;;;14.60;76.70;;;;;;5096334;28;20100;-87
2021/04/14 12:49:44;;;;;;;11.32;8.25;;;14.50;76.20;;;;;;5114401;28;20027;-86
2021/04/14 12:52:34;;;;;;;8.73;7.45;;;14.40;76.80;;;;;;5095972;28;20034;-87
2021/04/14 12:55:03;;;;;;;20.30;8.40;;;14.50;76.60;;;;;;5074582;28;20027;-88
2021/04/14 12:57:33;;;;;;;17.90;9.18;;;14.50;76.90;;;;;;5095953;28;20023;-88
2021/04/14 13:00:06;;;;;;;13.95;8.13;;;14.30;76.70;;;;;;5095881;28;20035;-87
2021/04/14 13:02:46;;;;;;;13.27;8.32;;;14.50;77.20;;;;;;5095682;28;20062;-86